Time;durP1;ratioP1;P1;durP2;ratioP2;P2;SDS_P1;SDS_P2;PMS_P1;PMS_P2;Temp;Humidity;BMP_temperature;BMP_pressure;BME280_temperature;BME280_humidity;BME280_pressure;Samples;Min_cycle;Max_cycle;Signal;HPM_P1;HPM_P2
2022/11/05 00:09:42;;;;;;;89.80;56.30;;;;;;;9.94;80.28;97898.02;85696;1280;99636;-73
2022/11/05 00:16:42;;;;;;;97.70;60.00;;;;;;;9.94;80.39;97905.02;85591;1283;99469;-74
2022/11/05 00:19:05;;;;;;;103.20;57.50;;;;;;;9.95;80.47;97904.60;85740;1291;23073;-72
2022/11/05 00:25:12;;;;;;;90.80;56.30;;;;;;;9.96;80.44;97905.26;85842;1280;99569;-73
2022/11/05 00:25:54;;;;;;;87.50;54.40;;;;;;;9.94;80.52;97906.95;85852;1288;22472;-73
2022/11/05 00:28:01;;;;;;;92.00;53.50;;;;;;;9.93;80.56;97916.14;85678;1284;99230;-74
2022/11/05 00:30:03;;;;;;;99.70;58.00;;;;;;;9.91;80.45;97917.82;85872;1284;22484;-73
2022/11/05 00:32:04;;;;;;;97.00;56.80;;;;;;;9.92;80.38;97916.40;85742;1291;22506;-74
2022/11/05 00:34:06;;;;;;;93.40;57.60;;;;;;;9.92;80.82;97912.00;85783;1282;99411;-73
2022/11/05 00:36:09;;;;;;;94.20;54.30;;;;;;;9.92;80.78;97913.08;85850;1284;22474;-72
2022/11/05 00:38:11;;;;;;;90.60;54.40;;;;;;;9.90;80.59;97906.14;85668;1290;24297;-73
2022/11/05 00:40:13;;;;;;;92.90;52.10;;;;;;;9.89;80.66;97904.98;85760;1283;98816;-73
2022/11/05 00:49:28;;;;;;;89.40;52.20;;;;;;;9.88;81.00;97917.65;85684;1283;22481;-73
2022/11/05 00:49:29;;;;;;;82.20;50.30;;;;;;;9.91;80.74;97921.38;86021;1281;22598;-73
2022/11/05 00:51:33;;;;;;;84.00;53.00;;;;;;;9.90;80.83;97917.03;85763;1287;98098;-74
2022/11/05 00:53:35;;;;;;;90.80;50.50;;;;;;;9.91;81.01;97913.08;85817;1290;22466;-73
2022/11/05 00:55:40;;;;;;;85.00;48.00;;;;;;;9.90;81.11;97910.34;85868;1287;25290;-73
2022/11/05 00:57:41;;;;;;;83.40;49.70;;;;;;;9.91;81.09;97917.18;85746;1287;99179;-74
2022/11/05 00:59:43;;;;;;;82.70;50.40;;;;;;;9.90;80.93;97916.87;85925;1287;22479;-72
2022/11/05 01:01:45;;;;;;;86.20;49.00;;;;;;;9.89;80.88;97920.06;85922;1288;22483;-75
2022/11/05 01:03:47;;;;;;;76.40;47.40;;;;;;;9.88;80.73;97918.92;85638;1288;99666;-72
2022/11/05 01:05:52;;;;;;;80.30;46.80;;;;;;;9.84;80.83;97922.29;85891;1288;22447;-74
2022/11/05 01:07:54;;;;;;;75.40;47.60;;;;;;;9.82;80.78;97926.13;85783;1291;22493;-74
2022/11/05 01:09:56;;;;;;;76.10;48.20;;;;;;;9.82;80.99;97932.99;85807;1291;99567;-73
2022/11/05 01:11:58;;;;;;;87.50;50.80;;;;;;;9.81;81.09;97930.55;85615;1289;25362;-73
2022/11/05 01:14:07;;;;;;;76.80;46.20;;;;;;;9.83;81.28;97927.13;85817;1291;22512;-72
2022/11/05 01:16:09;;;;;;;88.50;48.00;;;;;;;9.82;81.24;97921.23;85668;1284;99167;-73
2022/11/05 01:18:11;;;;;;;73.30;44.60;;;;;;;9.81;81.30;97920.23;85804;1283;24762;-73
2022/11/05 01:20:14;;;;;;;78.40;44.70;;;;;;;9.79;81.04;97922.65;85767;1291;22595;-72
2022/11/05 01:22:15;;;;;;;81.00;46.30;;;;;;;9.78;80.77;97927.29;85527;1286;99589;-73
2022/11/05 01:24:17;;;;;;;76.00;46.30;;;;;;;9.74;80.96;97928.02;85727;1283;22619;-71
2022/11/05 01:26:19;;;;;;;72.00;45.90;;;;;;;9.70;80.96;97932.46;85868;1284;24294;-72
2022/11/05 01:28:20;;;;;;;77.60;47.80;;;;;;;9.70;81.14;97939.44;85606;1289;99415;-72
2022/11/05 01:30:22;;;;;;;81.20;47.80;;;;;;;9.72;81.14;97945.68;85686;1291;24620;-73
2022/11/05 01:32:24;;;;;;;79.50;49.10;;;;;;;9.73;81.24;97947.23;85681;1287;25416;-72
2022/11/05 01:34:26;;;;;;;85.30;48.80;;;;;;;9.74;81.11;97946.48;85871;1281;99260;-72
2022/11/05 01:36:27;;;;;;;78.80;49.90;;;;;;;9.74;81.26;97945.73;85845;1291;25297;-73
2022/11/05 01:38:29;;;;;;;77.40;47.00;;;;;;;9.74;81.20;97948.05;85924;1291;22589;-71
2022/11/05 01:40:31;;;;;;;74.60;46.10;;;;;;;9.73;80.91;97952.80;85846;1291;99160;-72
2022/11/05 01:42:33;;;;;;;74.00;45.60;;;;;;;9.71;80.99;97951.31;85947;1290;22562;-71
2022/11/05 01:44:49;;;;;;;80.20;47.30;;;;;;;9.71;81.21;97953.10;86417;1291;26586;-72
2022/11/05 01:46:51;;;;;;;75.10;47.50;;;;;;;9.71;81.40;97961.15;86990;1287;97898;-73
2022/11/05 01:48:55;;;;;;;80.50;49.10;;;;;;;9.71;81.41;97963.65;86615;1287;25654;-73
2022/11/05 01:51:10;;;;;;;78.90;47.50;;;;;;;9.70;81.44;97959.66;85923;1283;100019;-74
2022/11/05 01:53:19;;;;;;;83.20;49.50;;;;;;;9.68;81.26;97956.45;87065;1287;22477;-73
2022/11/05 01:55:27;;;;;;;87.10;50.10;;;;;;;9.68;81.27;97956.59;86485;1302;22592;-72
2022/11/05 01:57:30;;;;;;;88.80;48.70;;;;;;;9.68;81.50;97953.61;87198;1287;98159;-73
2022/11/05 01:59:45;;;;;;;84.30;49.10;;;;;;;9.69;81.46;97956.55;88045;1306;24332;-73
2022/11/05 02:01:46;;;;;;;74.00;48.50;;;;;;;9.70;81.37;97965.75;88002;1298;22443;-72
2022/11/05 02:03:52;;;;;;;85.00;49.40;;;;;;;9.71;81.58;97970.29;87829;1315;98316;-73
2022/11/05 02:05:57;;;;;;;80.80;48.40;;;;;;;9.73;81.46;97968.98;88115;1298;22802;-73
2022/11/05 02:08:00;;;;;;;81.30;49.50;;;;;;;9.74;81.63;97973.81;87315;1292;24348;-71
2022/11/05 02:10:08;;;;;;;85.50;50.30;;;;;;;9.72;81.49;97966.89;86442;1312;99378;-72
2022/11/05 02:12:11;;;;;;;79.50;46.30;;;;;;;9.76;81.77;97971.79;86058;1313;24329;-73
2022/11/05 02:14:13;;;;;;;73.10;45.50;;;;;;;9.77;81.56;97971.55;85971;1291;22719;-71
2022/11/05 02:16:36;;;;;;;72.10;45.50;;;;;;;9.77;81.74;97969.61;85950;1307;99394;-71
2022/11/05 02:19:06;;;;;;;69.00;42.20;;;;;;;9.77;81.79;97968.17;86294;1312;25875;-71
2022/11/05 02:21:27;;;;;;;69.90;42.30;;;;;;;9.77;81.75;97966.79;86175;1289;99387;-72
2022/11/05 02:23:43;;;;;;;63.10;37.50;;;;;;;9.77;81.80;97967.51;86164;1287;22628;-72
2022/11/05 02:25:51;;;;;;;48.00;29.70;;;;;;;9.76;81.83;97968.80;86136;1298;22439;-72
2022/11/05 02:27:53;;;;;;;43.80;26.40;;;;;;;9.76;82.03;97974.06;86081;1306;99402;-71
2022/11/05 02:30:09;;;;;;;38.30;27.00;;;;;;;9.74;82.08;97971.88;86245;1293;22477;-70
2022/11/05 02:32:13;;;;;;;34.50;22.20;;;;;;;9.74;81.99;97981.73;86020;1306;23557;-71
2022/11/05 02:34:22;;;;;;;24.10;19.80;;;;;;;9.72;81.91;97988.12;86247;1295;99202;-72
2022/11/05 02:36:47;;;;;;;22.50;17.10;;;;;;;9.70;81.87;97988.62;86173;1302;22504;-72
2022/11/05 02:39:08;;;;;;;23.70;14.90;;;;;;;9.67;81.79;97990.52;86156;1291;22691;-72
2022/11/05 02:41:33;;;;;;;16.90;9.80;;;;;;;9.64;81.63;97992.27;86232;1302;22896;-72
2022/11/05 02:43:53;;;;;;;12.00;7.90;;;;;;;9.61;81.65;98002.33;86084;1293;22775;-73
2022/11/05 02:46:16;;;;;;;7.40;6.70;;;;;;;9.56;81.67;98005.04;86230;1312;98559;-74
2022/11/05 02:48:44;;;;;;;6.80;5.40;;;;;;;9.51;81.17;98008.65;86766;1287;25463;-74
2022/11/05 02:51:11;;;;;;;6.70;5.90;;;;;;;9.45;81.17;98010.05;86910;1312;22767;-74
2022/11/05 02:53:26;;;;;;;11.50;4.70;;;;;;;9.41;81.35;98017.50;86149;1300;22744;-74
2022/11/05 02:55:37;;;;;;;6.50;5.90;;;;;;;9.37;81.35;98025.61;86122;1296;22490;-72
2022/11/05 02:57:42;;;;;;;6.50;6.00;;;;;;;9.35;81.29;98037.49;86269;1310;98853;-74
2022/11/05 02:59:44;;;;;;;6.40;5.80;;;;;;;9.32;81.24;98042.89;86146;1306;22976;-73
2022/11/05 03:01:47;;;;;;;7.90;5.20;;;;;;;9.30;81.34;98049.69;86130;1315;24266;-75
2022/11/05 03:03:59;;;;;;;7.20;6.50;;;;;;;9.29;81.24;98055.73;86242;1297;98853;-73
2022/11/05 03:06:38;;;;;;;10.80;5.70;;;;;;;9.26;81.44;98060.80;86295;1304;23313;-73
2022/11/05 03:08:56;;;;;;;6.20;5.70;;;;;;;9.23;81.51;98064.80;86180;1287;22457;-74
2022/11/05 03:11:08;;;;;;;7.60;6.00;;;;;;;9.21;81.13;98072.84;86113;1287;99102;-74
2022/11/05 03:13:32;;;;;;;6.60;6.10;;;;;;;9.18;81.34;98074.21;86162;1290;22488;-74
2022/11/05 03:15:57;;;;;;;8.40;7.10;;;;;;;9.16;81.33;98079.57;85884;1297;99032;-73
2022/11/05 03:18:13;;;;;;;7.60;7.00;;;;;;;9.15;81.16;98089.50;85975;1290;22504;-73
2022/11/05 03:20:20;;;;;;;7.70;7.10;;;;;;;9.11;81.27;98091.27;86140;1287;25385;-71
2022/11/05 03:22:31;;;;;;;8.40;7.70;;;;;;;9.10;81.46;98094.64;85987;1287;98928;-73
2022/11/05 03:24:37;;;;;;;8.70;7.90;;;;;;;9.09;81.13;98093.15;86105;1312;22561;-71
2022/11/05 03:26:56;;;;;;;8.70;8.00;;;;;;;9.08;81.14;98092.52;85849;1284;24246;-73
2022/11/05 03:29:06;;;;;;;9.60;8.70;;;;;;;9.06;81.32;98094.02;86000;1287;98752;-73
2022/11/05 03:31:13;;;;;;;10.80;9.40;;;;;;;9.03;81.66;98093.96;85877;1294;22575;-73
2022/11/05 03:33:20;;;;;;;9.80;8.90;;;;;;;9.02;81.35;98095.93;85895;1290;99454;-73
2022/11/05 03:35:26;;;;;;;9.80;9.10;;;;;;;9.00;81.23;98098.02;85965;1290;23329;-73
2022/11/05 03:37:33;;;;;;;10.40;9.30;;;;;;;8.98;81.38;98096.67;86040;1288;25625;-72
2022/11/05 03:39:40;;;;;;;11.00;9.90;;;;;;;8.98;81.20;98099.52;85783;1290;99500;-73
2022/11/05 03:41:48;;;;;;;11.20;9.90;;;;;;;8.97;81.31;98105.71;86078;1287;22587;-72
2022/11/05 03:43:55;;;;;;;10.50;9.60;;;;;;;8.96;81.36;98111.35;85877;1290;22476;-73
2022/11/05 03:46:02;;;;;;;9.70;8.80;;;;;;;8.96;81.20;98115.75;85875;1288;99615;-73
2022/11/05 03:48:06;;;;;;;10.40;8.80;;;;;;;8.95;81.21;98116.70;85924;1296;22492;-73
2022/11/05 03:50:24;;;;;;;10.30;9.30;;;;;;;8.93;81.28;98116.64;85781;1284;22481;-73
2022/11/05 03:52:31;;;;;;;9.80;8.80;;;;;;;8.91;81.27;98120.05;85724;1284;99039;-72
2022/11/05 03:54:33;;;;;;;9.10;8.40;;;;;;;8.89;81.09;98122.61;85650;1299;22488;-73
2022/11/05 03:57:02;;;;;;;8.70;7.90;;;;;;;8.88;81.11;98130.77;85764;1283;22494;-73
2022/11/05 03:59:06;;;;;;;7.70;7.20;;;;;;;8.85;81.53;98122.84;86051;1291;22477;-73
2022/11/05 04:01:08;;;;;;;8.10;7.40;;;;;;;8.84;81.12;98126.58;85865;1289;22710;-73
2022/11/05 04:03:10;;;;;;;9.00;7.30;;;;;;;8.82;81.07;98126.52;85672;1291;99020;-74
2022/11/05 04:05:12;;;;;;;7.50;6.90;;;;;;;8.80;81.29;98129.96;85842;1288;26609;-72
2022/11/05 04:14:14;;;;;;;7.30;6.70;;;;;;;8.72;81.23;98139.17;85850;1289;24457;-73
2022/11/05 04:18:37;;;;;;;7.40;6.80;;;;;;;8.69;81.43;98138.23;85735;1288;22961;-73
2022/11/05 04:25:24;;;;;;;8.70;6.40;;;;;;;8.64;81.45;98133.61;85876;1287;22476;-73
2022/11/05 04:27:26;;;;;;;7.20;6.70;;;;;;;8.61;81.38;98130.42;85738;1298;100873;-73
2022/11/05 04:31:48;;;;;;;7.50;7.00;;;;;;;8.59;81.37;98138.42;85777;1291;22511;-73
2022/11/05 04:33:50;;;;;;;6.80;6.30;;;;;;;8.58;81.16;98143.38;85745;1287;101513;-73
2022/11/05 04:35:52;;;;;;;7.00;6.50;;;;;;;8.57;81.35;98144.33;85968;1291;22557;-74
2022/11/05 04:37:53;;;;;;;7.10;6.60;;;;;;;8.56;81.41;98148.23;85712;1294;24453;-74
2022/11/05 04:39:55;;;;;;;6.40;6.00;;;;;;;8.53;81.53;98149.41;85561;1290;99752;-75
2022/11/05 04:41:56;;;;;;;6.90;6.40;;;;;;;8.53;81.44;98152.77;85649;1290;22750;-73
2022/11/05 04:43:58;;;;;;;7.20;6.50;;;;;;;8.54;81.49;98154.83;85981;1280;22565;-74
2022/11/05 04:46:00;;;;;;;6.80;6.30;;;;;;;8.54;81.38;98155.71;85725;1289;98851;-74
2022/11/05 04:48:02;;;;;;;6.40;5.90;;;;;;;8.54;81.33;98154.98;85680;1290;24879;-73
2022/11/05 04:50:04;;;;;;;8.40;6.30;;;;;;;8.53;81.35;98155.39;85799;1289;22481;-75
2022/11/05 04:52:06;;;;;;;6.00;5.50;;;;;;;8.52;81.51;98156.14;85623;1287;99749;-74
2022/11/05 04:54:08;;;;;;;6.20;5.60;;;;;;;8.51;81.42;98151.09;85780;1295;23655;-75
2022/11/05 04:56:10;;;;;;;6.30;5.70;;;;;;;8.51;81.31;98156.73;85664;1291;22491;-74
2022/11/05 04:58:12;;;;;;;6.30;5.70;;;;;;;8.50;81.49;98161.11;85903;1288;100170;-73
2022/11/05 05:00:14;;;;;;;6.20;4.60;;;;;;;8.50;81.12;98166.56;85783;1287;25379;-74
2022/11/05 05:02:15;;;;;;;6.30;5.70;;;;;;;8.49;81.33;98163.65;85765;1290;22584;-74
2022/11/05 05:04:18;;;;;;;5.80;5.30;;;;;;;8.49;81.19;98162.93;85742;1287;99368;-73
2022/11/05 05:06:21;;;;;;;7.90;5.90;;;;;;;8.49;81.26;98165.21;85830;1290;22917;-73
2022/11/05 05:08:23;;;;;;;5.40;5.00;;;;;;;8.49;81.31;98173.80;85762;1287;22495;-73
2022/11/05 05:10:24;;;;;;;5.50;4.80;;;;;;;8.49;81.09;98181.71;85736;1295;99011;-73
2022/11/05 05:12:26;;;;;;;5.80;5.40;;;;;;;8.49;81.29;98185.55;85795;1295;25329;-73
2022/11/05 05:14:28;;;;;;;5.30;4.90;;;;;;;8.49;81.02;98188.37;85824;1287;22577;-73
2022/11/05 05:16:29;;;;;;;5.80;5.30;;;;;;;8.49;81.31;98190.08;85755;1287;100997;-74
2022/11/05 05:18:31;;;;;;;6.40;5.80;;;;;;;8.49;81.56;98193.76;85830;1289;22646;-74
2022/11/05 05:22:54;;;;;;;11.40;5.50;;;;;;;8.50;81.25;98198.94;85787;1286;98684;-73
2022/11/05 05:24:56;;;;;;;5.30;5.00;;;;;;;8.52;81.51;98203.05;85725;1298;22984;-73
2022/11/05 05:26:57;;;;;;;5.40;4.90;;;;;;;8.54;81.38;98202.10;85848;1289;22588;-73
2022/11/05 05:28:59;;;;;;;5.30;5.00;;;;;;;8.55;81.05;98204.50;85710;1287;97644;-73
2022/11/05 05:31:01;;;;;;;6.80;4.90;;;;;;;8.56;81.48;98205.50;85851;1295;22541;-73
2022/11/05 05:33:03;;;;;;;5.80;5.40;;;;;;;8.57;81.65;98208.08;85714;1287;99610;-76
2022/11/05 05:35:05;;;;;;;5.30;4.90;;;;;;;8.58;81.18;98210.98;85836;1290;22484;-74
2022/11/05 05:37:07;;;;;;;4.90;4.50;;;;;;;8.57;81.07;98213.12;85853;1290;24311;-74
2022/11/05 05:39:11;;;;;;;5.40;5.00;;;;;;;8.58;81.21;98218.66;85679;1290;101152;-71
2022/11/05 05:41:16;;;;;;;5.40;5.00;;;;;;;8.58;81.32;98222.22;85728;1290;22579;-71
2022/11/05 05:43:17;;;;;;;4.80;4.40;;;;;;;8.56;81.23;98220.17;85769;1286;23340;-70
2022/11/05 05:45:19;;;;;;;5.30;4.90;;;;;;;8.56;81.39;98221.92;85593;1296;98824;-70
2022/11/05 05:47:20;;;;;;;5.90;4.80;;;;;;;8.57;81.40;98220.31;85787;1282;22490;-70
2022/11/05 05:49:22;;;;;;;5.30;4.90;;;;;;;8.56;81.50;98222.47;85754;1287;22659;-72
2022/11/05 05:51:24;;;;;;;4.30;4.00;;;;;;;8.56;81.52;98225.09;85597;1285;98931;-71
2022/11/05 05:53:25;;;;;;;5.10;4.70;;;;;;;8.56;81.79;98226.70;85904;1287;22939;-71
2022/11/05 05:55:27;;;;;;;5.00;4.70;;;;;;;8.55;81.37;98230.58;85654;1290;22502;-71
2022/11/05 05:57:29;;;;;;;5.80;4.80;;;;;;;8.54;81.33;98234.66;85508;1290;99623;-72
2022/11/05 05:59:30;;;;;;;5.50;5.20;;;;;;;8.52;81.73;98240.36;85816;1289;25447;-70
2022/11/05 06:01:32;;;;;;;5.10;4.70;;;;;;;8.51;81.68;98247.77;85829;1287;22524;-71
2022/11/05 06:03:34;;;;;;;6.20;5.60;;;;;;;8.50;81.78;98251.16;85668;1287;102264;-71
2022/11/05 06:05:35;;;;;;;6.10;5.70;;;;;;;8.49;81.90;98257.14;85764;1289;22488;-71
2022/11/05 06:07:37;;;;;;;6.00;5.40;;;;;;;8.49;81.77;98261.02;85745;1290;25293;-71
2022/11/05 06:09:39;;;;;;;6.40;5.90;;;;;;;8.48;82.14;98263.85;85731;1289;98859;-71
2022/11/05 06:11:41;;;;;;;6.80;6.30;;;;;;;8.47;81.93;98271.58;85840;1287;25676;-71
2022/11/05 06:13:43;;;;;;;7.30;6.70;;;;;;;8.46;81.71;98272.16;85916;1287;24372;-71
2022/11/05 06:15:44;;;;;;;7.00;6.40;;;;;;;8.46;82.05;98272.33;85768;1294;100828;-73
2022/11/05 06:17:46;;;;;;;7.30;6.70;;;;;;;8.46;82.00;98273.39;85865;1287;22618;-73
2022/11/05 06:19:47;;;;;;;8.30;7.60;;;;;;;8.46;82.15;98275.34;85600;1289;23654;-72
2022/11/05 06:21:49;;;;;;;16.90;7.20;;;;;;;8.45;82.20;98278.70;85750;1287;99902;-72
2022/11/05 06:23:51;;;;;;;8.20;7.20;;;;;;;8.46;82.24;98277.95;85779;1289;22485;-74
2022/11/05 06:25:52;;;;;;;8.50;7.30;;;;;;;8.45;82.20;98276.95;85719;1287;22430;-72
2022/11/05 06:27:54;;;;;;;7.80;7.20;;;;;;;8.45;82.05;98280.46;85614;1290;99620;-72
2022/11/05 06:29:56;;;;;;;11.70;8.00;;;;;;;8.45;82.06;98288.00;85918;1297;22493;-72
2022/11/05 06:31:58;;;;;;;9.80;8.40;;;;;;;8.45;82.23;98289.90;85807;1290;22535;-73
2022/11/05 06:34:00;;;;;;;9.90;8.70;;;;;;;8.45;82.25;98292.55;85714;1296;98948;-73
2022/11/05 06:36:03;;;;;;;16.80;8.80;;;;;;;8.45;82.34;98297.96;85737;1294;23147;-72
2022/11/05 06:38:05;;;;;;;16.90;8.00;;;;;;;8.43;82.41;98300.81;85866;1298;24931;-71
2022/11/05 06:40:08;;;;;;;10.00;8.20;;;;;;;8.43;82.48;98303.46;85707;1290;101074;-72
2022/11/05 06:42:09;;;;;;;11.50;8.70;;;;;;;8.42;82.14;98306.48;85918;1312;24264;-70
2022/11/05 06:44:11;;;;;;;14.30;9.30;;;;;;;8.42;82.31;98310.17;86246;1307;23883;-72
2022/11/05 06:46:13;;;;;;;16.50;8.90;;;;;;;8.41;82.58;98315.81;86838;1301;99371;-71
2022/11/05 06:48:14;;;;;;;10.20;9.10;;;;;;;8.41;82.52;98315.64;85932;1297;22685;-72
2022/11/05 06:50:16;;;;;;;12.70;7.80;;;;;;;8.40;82.39;98317.30;86161;1287;23249;-72
2022/11/05 06:52:19;;;;;;;17.30;8.40;;;;;;;8.39;82.46;98320.45;85981;1296;101409;-71
2022/11/05 06:54:20;;;;;;;14.90;8.90;;;;;;;8.39;82.33;98322.92;86008;1312;22638;-72
2022/11/05 06:56:22;;;;;;;9.00;8.20;;;;;;;8.39;82.77;98326.97;85734;1296;22568;-70
2022/11/05 06:58:24;;;;;;;10.70;8.40;;;;;;;8.38;82.82;98324.53;85755;1293;97899;-71
2022/11/05 07:00:25;;;;;;;10.70;9.10;;;;;;;8.37;82.57;98326.67;85926;1287;22597;-70
2022/11/05 07:02:27;;;;;;;14.60;9.10;;;;;;;8.38;82.87;98330.89;85945;1284;22518;-71
2022/11/05 07:04:29;;;;;;;20.00;9.20;;;;;;;8.27;82.75;98317.39;85746;1287;99142;-70
2022/11/05 07:06:31;;;;;;;14.80;10.10;;;;;;;8.37;82.64;98339.98;85805;1291;22607;-71
2022/11/05 07:08:34;;;;;;;17.10;9.90;;;;;;;8.37;82.91;98338.25;85863;1285;22924;-71
2022/11/05 07:10:36;;;;;;;13.20;9.00;;;;;;;8.35;83.30;98341.13;85571;1291;99120;-71
2022/11/05 07:12:37;;;;;;;15.30;11.10;;;;;;;8.34;82.96;98347.15;85921;1285;22611;-70
2022/11/05 07:14:39;;;;;;;13.60;11.90;;;;;;;8.33;83.16;98351.75;85657;1283;22556;-71
2022/11/05 07:16:40;;;;;;;18.50;13.10;;;;;;;8.34;82.80;98355.91;85763;1286;99296;-71
2022/11/05 07:18:42;;;;;;;25.00;12.90;;;;;;;8.34;83.13;98359.21;85876;1298;22512;-71
2022/11/05 07:20:44;;;;;;;27.10;14.30;;;;;;;8.34;83.07;98365.86;85879;1294;22495;-70
2022/11/05 07:22:45;;;;;;;18.80;14.10;;;;;;;8.35;83.06;98367.75;85687;1297;99202;-71
2022/11/05 07:24:48;;;;;;;18.80;13.80;;;;;;;8.35;83.10;98371.08;85918;1288;23294;-71
2022/11/05 07:26:50;;;;;;;13.90;12.10;;;;;;;8.34;83.09;98371.98;85825;1303;22891;-70
2022/11/05 07:28:53;;;;;;;22.50;13.50;;;;;;;8.35;83.27;98374.40;85592;1299;99931;-72
2022/11/05 07:30:57;;;;;;;18.50;12.20;;;;;;;8.36;82.93;98375.94;85918;1305;24487;-71
2022/11/05 07:32:59;;;;;;;22.50;11.50;;;;;;;8.34;83.16;98374.08;85916;1291;23302;-71
2022/11/05 07:35:00;;;;;;;13.00;11.60;;;;;;;8.35;83.45;98379.46;85878;1293;100005;-71
2022/11/05 07:37:02;;;;;;;23.90;11.80;;;;;;;8.34;83.19;98377.74;85837;1305;25364;-72
2022/11/05 07:39:04;;;;;;;16.30;11.40;;;;;;;8.35;83.48;98386.16;85980;1294;25373;-72
2022/11/05 07:41:06;;;;;;;15.80;11.30;;;;;;;8.34;83.35;98386.33;85889;1289;25593;-71
2022/11/05 07:43:07;;;;;;;15.10;11.00;;;;;;;8.35;83.55;98387.19;85752;1290;223085;-71
2022/11/05 07:45:10;;;;;;;21.80;11.80;;;;;;;8.35;83.79;98388.56;85731;1296;99777;-71
2022/11/05 07:47:12;;;;;;;19.60;10.50;;;;;;;8.35;83.64;98389.46;85866;1298;22549;-72
2022/11/05 07:49:17;;;;;;;16.20;11.30;;;;;;;8.36;83.47;98389.95;85884;1292;23472;-72
2022/11/05 07:51:19;;;;;;;13.00;10.60;;;;;;;8.37;83.58;98390.77;85681;1303;99359;-71
2022/11/05 07:53:20;;;;;;;11.70;10.40;;;;;;;8.38;83.67;98393.72;85906;1298;23890;-72
2022/11/05 07:55:22;;;;;;;11.20;9.90;;;;;;;8.38;84.09;98391.23;85836;1298;22617;-72
2022/11/05 07:57:24;;;;;;;12.20;10.50;;;;;;;8.38;83.63;98388.44;85739;1291;99787;-70
2022/11/05 07:59:25;;;;;;;20.20;10.50;;;;;;;8.38;83.57;98387.38;86277;1297;25499;-72
2022/11/05 08:01:30;;;;;;;16.70;11.10;;;;;;;8.39;83.61;98386.50;86498;1298;22463;-72
2022/11/05 08:03:32;;;;;;;18.30;10.70;;;;;;;8.39;83.76;98384.35;86575;1296;98691;-72
2022/11/05 08:05:36;;;;;;;13.20;10.90;;;;;;;8.40;83.64;98386.25;86650;1307;22696;-72
2022/11/05 08:07:38;;;;;;;17.50;11.50;;;;;;;8.41;83.78;98388.85;86835;1297;22511;-71
2022/11/05 08:09:40;;;;;;;13.30;10.90;;;;;;;8.40;83.82;98388.89;86375;1297;98381;-71
2022/11/05 08:11:41;;;;;;;22.60;11.50;;;;;;;8.42;83.69;98390.54;86647;1295;22592;-72
2022/11/05 08:13:43;;;;;;;13.30;11.00;;;;;;;8.43;83.64;98388.55;86803;1283;22556;-71
2022/11/05 08:15:45;;;;;;;23.10;11.50;;;;;;;8.44;84.07;98389.04;86595;1290;98229;-73
2022/11/05 08:17:47;;;;;;;16.90;11.80;;;;;;;8.44;83.69;98392.00;86799;1290;23339;-72
2022/11/05 08:19:49;;;;;;;16.40;12.70;;;;;;;8.45;83.70;98391.29;86727;1290;22583;-72
2022/11/05 08:21:50;;;;;;;15.60;12.00;;;;;;;8.45;84.01;98393.02;86853;1297;99201;-71
2022/11/05 08:23:52;;;;;;;16.20;12.80;;;;;;;8.44;83.71;98393.23;87229;1291;24294;-73
2022/11/05 08:25:55;;;;;;;19.70;13.00;;;;;;;8.45;83.72;98400.23;87109;1287;22525;-72
2022/11/05 08:28:00;;;;;;;14.40;13.00;;;;;;;8.45;83.92;98400.59;86870;1291;98138;-72
2022/11/05 08:30:07;;;;;;;16.00;12.30;;;;;;;8.44;83.97;98401.30;87009;1283;22481;-73
2022/11/05 08:32:09;;;;;;;15.50;13.90;;;;;;;8.46;83.92;98406.45;86943;1286;22508;-71
2022/11/05 08:34:11;;;;;;;21.40;12.70;;;;;;;8.46;83.70;98408.73;86721;1283;100104;-72
2022/11/05 08:36:13;;;;;;;20.30;14.10;;;;;;;8.48;83.84;98412.52;86697;1285;22471;-71
2022/11/05 08:38:18;;;;;;;19.10;13.90;;;;;;;8.49;83.75;98414.73;86805;1287;22487;-71
2022/11/05 08:40:19;;;;;;;20.90;13.20;;;;;;;8.49;84.00;98413.69;86691;1291;98342;-71
2022/11/05 08:42:21;;;;;;;25.90;14.50;;;;;;;8.48;83.83;98415.29;86731;1291;22577;-74
2022/11/05 08:44:24;;;;;;;17.20;14.30;;;;;;;8.49;83.87;98416.15;86663;1287;22468;-72
2022/11/05 08:46:25;;;;;;;35.60;15.20;;;;;;;8.49;83.73;98422.28;86574;1283;99644;-73
2022/11/05 08:48:27;;;;;;;25.00;14.90;;;;;;;8.49;83.75;98421.22;86542;1284;25301;-71
2022/11/05 08:50:30;;;;;;;21.20;14.90;;;;;;;8.48;84.08;98422.11;86364;1299;22571;-71
2022/11/05 08:52:31;;;;;;;16.10;14.50;;;;;;;8.48;83.95;98424.73;86654;1291;98518;-71
2022/11/05 08:54:33;;;;;;;20.40;14.90;;;;;;;8.48;84.26;98428.80;86771;1291;22506;-71
2022/11/05 08:56:35;;;;;;;17.00;15.20;;;;;;;8.47;84.15;98430.23;86831;1281;23538;-71
2022/11/05 08:58:37;;;;;;;33.20;16.70;;;;;;;8.47;84.05;98432.69;86717;1296;99539;-71
2022/11/05 09:00:39;;;;;;;31.30;17.40;;;;;;;8.46;84.09;98432.03;86925;1290;26066;-72
2022/11/05 09:02:41;;;;;;;19.30;17.30;;;;;;;8.46;84.20;98430.63;86327;1287;23539;-72
2022/11/05 09:04:43;;;;;;;23.90;19.20;;;;;;;8.46;83.92;98431.16;86158;1290;99208;-72
2022/11/05 09:06:45;;;;;;;25.70;20.10;;;;;;;8.46;84.03;98430.98;86181;1313;22592;-72
2022/11/05 09:08:47;;;;;;;23.80;20.00;;;;;;;8.47;84.24;98431.80;86362;1287;22723;-72
2022/11/05 09:10:48;;;;;;;26.30;21.10;;;;;;;8.46;83.96;98433.05;86313;1287;98094;-72
2022/11/05 09:12:50;;;;;;;28.80;21.10;;;;;;;8.48;83.96;98439.30;86375;1287;22499;-72
2022/11/05 09:14:52;;;;;;;38.20;21.10;;;;;;;8.48;84.02;98440.54;86430;1297;23080;-72
2022/11/05 09:16:53;;;;;;;41.40;25.90;;;;;;;8.39;84.14;98431.30;86434;1297;98141;-72
2022/11/05 09:18:55;;;;;;;31.60;21.40;;;;;;;8.50;84.28;98447.42;86398;1303;22482;-72
2022/11/05 09:20:57;;;;;;;29.40;21.30;;;;;;;8.50;84.14;98447.77;87074;1312;22572;-72
2022/11/05 09:22:59;;;;;;;26.60;21.30;;;;;;;8.50;84.20;98447.07;86613;1296;98079;-73
2022/11/05 09:25:00;;;;;;;25.60;20.20;;;;;;;8.49;84.26;98447.63;86613;1288;22501;-73
2022/11/05 09:27:03;;;;;;;28.90;20.70;;;;;;;8.50;84.21;98450.92;86545;1296;22726;-73
2022/11/05 09:29:04;;;;;;;33.00;21.90;;;;;;;8.49;84.32;98451.14;86469;1298;24376;-71
2022/11/05 09:31:08;;;;;;;33.50;21.90;;;;;;;8.51;84.18;98456.83;86566;1312;22511;-72
2022/11/05 09:33:10;;;;;;;34.50;21.60;;;;;;;8.53;84.19;98463.92;86817;1297;98485;-73
2022/11/05 09:35:12;;;;;;;26.40;20.90;;;;;;;8.54;84.43;98468.07;86382;1314;22629;-73
2022/11/05 09:37:13;;;;;;;36.40;20.80;;;;;;;8.54;84.22;98472.98;86490;1293;23468;-72
2022/11/05 09:39:15;;;;;;;25.10;19.90;;;;;;;8.53;84.22;98473.20;86320;1297;99396;-73
2022/11/05 09:41:28;;;;;;;25.60;19.60;;;;;;;8.53;84.40;98472.35;86561;1288;22505;-72
2022/11/05 09:43:50;;;;;;;26.80;18.30;;;;;;;8.52;84.19;98470.44;86680;1312;23399;-71
2022/11/05 09:45:56;;;;;;;27.30;18.80;;;;;;;8.53;84.45;98470.77;86668;1296;99270;-72
2022/11/05 09:48:03;;;;;;;35.80;20.20;;;;;;;8.53;84.39;98471.08;86858;1289;22452;-72
2022/11/05 09:50:13;;;;;;;28.50;18.30;;;;;;;8.54;84.17;98471.21;86833;1291;23680;-72
2022/11/05 09:52:28;;;;;;;26.00;17.40;;;;;;;8.55;84.32;98474.35;87103;1298;99556;-74
2022/11/05 09:54:30;;;;;;;21.20;17.70;;;;;;;8.55;84.39;98481.84;86854;1288;22501;-73
2022/11/05 09:56:35;;;;;;;23.70;17.30;;;;;;;8.53;84.57;98475.65;86738;1289;22633;-72
2022/11/05 09:58:46;;;;;;;22.10;17.00;;;;;;;8.57;84.55;98480.00;86434;1301;99325;-72
2022/11/05 10:00:51;;;;;;;19.40;16.60;;;;;;;8.58;84.41;98477.89;86968;1292;22432;-73
2022/11/05 10:02:57;;;;;;;20.40;17.20;;;;;;;8.57;84.64;98476.85;86908;1289;24819;-72
2022/11/05 10:05:04;;;;;;;28.50;17.90;;;;;;;8.58;84.46;98480.66;86904;1282;99071;-71
2022/11/05 10:07:11;;;;;;;20.20;17.00;;;;;;;8.60;84.37;98485.13;87020;1287;22575;-75
2022/11/05 10:09:27;;;;;;;28.00;17.10;;;;;;;8.60;84.47;98489.13;87434;1296;99283;-73
2022/11/05 10:11:40;;;;;;;22.80;17.20;;;;;;;8.63;84.81;98490.73;86993;1283;25238;-73
2022/11/05 10:13:44;;;;;;;24.30;15.60;;;;;;;8.67;84.71;98491.08;87037;1287;22502;-73
2022/11/05 10:15:52;;;;;;;26.80;17.60;;;;;;;8.67;84.58;98492.63;86854;1290;98334;-73
2022/11/05 10:18:07;;;;;;;30.60;17.90;;;;;;;8.70;84.72;98496.36;86913;1290;22601;-73
2022/11/05 10:20:28;;;;;;;20.00;16.60;;;;;;;8.73;84.65;98495.91;87244;1291;22773;-73
2022/11/05 10:22:30;;;;;;;23.40;16.80;;;;;;;8.73;84.58;98488.70;87449;1289;98267;-72
2022/11/05 10:24:34;;;;;;;21.80;18.40;;;;;;;8.75;84.63;98488.60;87175;1286;24409;-74
2022/11/05 10:26:36;;;;;;;22.50;15.50;;;;;;;8.77;84.57;98488.34;87332;1291;22537;-73